Adak Airport
PADK : now visible

Aeroporto :











RITROVATECI SU...

 
LOGIN :

Iscrizione | Disclaimer

   EN    FR    IT 

 









Sommario :    VFR   VFR Marginale   IFR   IFR Intensivo   IFR Molto Intensivo
Visibilità : 
Base nubi : 
>= 8 km
>= 3000ft
5 / 8 km
1000 / 3000 ft
1500m / 5 km
500 / 1000 ft
800 / 1500m
200 / 500 ft
< 800m
< 200 ft
Simboli :   Temporali  Nebbia  Neve Forte  Precipitazioni Forti  Vento > 20 kt






- Altitudine del aeroporto : 18 ft
- Codice IATA : ADK


PADK - Adak

ULTIMO METAR :
  • 011956Z AUTO 36011KT 4SM BR OVC003 07/07 A2949 RMK AO2 SLP987 T00720067

METARs OBSOLETI :
  • 011940Z AUTO 01009KT 2SM BR OVC003 07/07 A2949 RMK AO2 VIS 1 1/4V4
  • 011856Z AUTO 36012KT 1 1/4SM BR OVC003 07/07 A2947 RMK AO2 SLP980 T00720072
  • 011849Z AUTO 36014KT 3/4SM BR OVC003 07/07 A2947 RMK AO2
  • 011808Z AUTO 36012KT 1SM BR OVC003 07/07 A2946 RMK AO2
  • 011756Z AUTO 01010KT 2 1/2SM BR BKN003 OVC011 07/06 A2946 RMK AO2 SLP976 60000 T00670061 10067 20056 51019
  • 011751Z AUTO 01010KT 2 1/2SM BR BKN003 OVC011 07/06 A2946 RMK AO2
  • 011746Z AUTO 02010KT 4SM BR SCT005 OVC011 07/06 A2946 RMK AO2

TAF N/A
FIR PAZA / America del Nord



MetMap, La meteo Aeronautica in un colpo d'occhio ! - Copyright ORBIFLY Dicembre 2007 - Disclaimer

ORBIFLY MET'MAP TEAM :

Programmazione e sviluppo : Alexandra Zaïnal
Concezione : Baudouin d'Aumeries
Aiuto per la programmazione : Marc-Olivier Méhu
Supporto tecnico e logistico : Manuel Goepfert
Aiuto per la traduzione : Arnaldo La Scala

Contatto : metmap@orbifly.com




FONTI E CREDITI :

   NOAA       Earth
Advisory